createdAt,value
2017-10-07T00:00:17.660Z,19.80
2017-10-07T00:02:44.332Z,18.23
2017-10-07T00:05:11.000Z,18.50
2017-10-07T00:07:37.654Z,18.73
2017-10-07T00:10:04.316Z,21.67
2017-10-07T00:12:30.964Z,21.07
2017-10-07T00:14:57.992Z,21.37
2017-10-07T00:17:24.639Z,21.87
2017-10-07T00:19:51.287Z,29.10
2017-10-07T00:22:17.975Z,21.47
2017-10-07T00:24:44.651Z,19.90
2017-10-07T00:27:11.309Z,22.23
2017-10-07T00:29:37.996Z,24.77
2017-10-07T00:32:04.660Z,24.17
2017-10-07T00:34:31.312Z,25.47
2017-10-07T00:36:57.999Z,24.63
2017-10-07T00:39:24.651Z,21.90
2017-10-07T00:41:51.292Z,22.83
2017-10-07T00:44:17.964Z,17.93
2017-10-07T00:46:44.725Z,13.40
2017-10-07T00:49:11.395Z,14.70
2017-10-07T00:51:38.215Z,29.07
2017-10-07T00:54:04.855Z,21.47
2017-10-07T00:56:31.503Z,19.17
2017-10-07T00:58:58.184Z,20.97
2017-10-07T01:01:24.839Z,18.27
2017-10-07T01:03:51.517Z,21.80
2017-10-07T01:06:18.163Z,26.27
2017-10-07T01:08:44.832Z,22.47
2017-10-07T01:11:11.480Z,17.33
2017-10-07T01:13:38.159Z,25.93
2017-10-07T01:16:04.806Z,24.00
2017-10-07T01:18:31.492Z,25.80
2017-10-07T01:20:58.159Z,21.43
2017-10-07T01:23:24.951Z,19.53
2017-10-07T01:25:51.636Z,31.30
2017-10-07T01:28:18.306Z,20.57
2017-10-07T01:30:44.957Z,20.00
2017-10-07T01:33:11.824Z,21.30
2017-10-07T01:35:38.485Z,25.20
2017-10-07T01:38:05.141Z,22.67
2017-10-07T01:47:14.800Z,17.27
2017-10-07T01:49:41.449Z,20.67
2017-10-07T01:52:08.120Z,21.77
2017-10-07T01:54:34.795Z,25.20
2017-10-07T01:57:01.475Z,19.47
2017-10-07T01:59:28.125Z,26.30
2017-10-07T02:01:54.950Z,23.57
2017-10-07T02:04:21.595Z,28.23
2017-10-07T02:06:48.257Z,24.50
2017-10-07T02:09:14.936Z,22.57
2017-10-07T02:11:41.581Z,22.20
2017-10-07T02:14:08.255Z,18.67
2017-10-07T02:16:34.929Z,29.87
2017-10-07T02:19:01.947Z,24.10
2017-10-07T02:21:28.598Z,18.93
2017-10-07T02:23:55.246Z,21.07
2017-10-07T02:26:21.911Z,20.50
2017-10-07T02:28:48.572Z,15.77
2017-10-07T02:31:15.559Z,19.57
2017-10-07T02:33:42.212Z,30.70
2017-10-07T02:36:08.860Z,20.43
2017-10-07T02:38:35.551Z,28.70
2017-10-07T02:41:02.204Z,27.23
2017-10-07T02:43:28.881Z,23.63
2017-10-07T02:45:55.564Z,21.43
2017-10-07T02:48:22.211Z,22.43
2017-10-07T02:50:48.892Z,26.53
2017-10-07T02:53:15.938Z,26.10
2017-10-07T02:55:42.583Z,26.03
2017-10-07T02:58:09.248Z,22.40
2017-10-07T03:00:35.916Z,22.33
2017-10-07T03:03:02.563Z,22.03
2017-10-07T03:05:29.245Z,25.10
2017-10-07T03:07:55.887Z,28.10
2017-10-07T03:10:22.559Z,26.23
2017-10-07T03:12:49.469Z,26.13
2017-10-07T03:15:16.217Z,23.20
2017-10-07T03:17:42.887Z,36.07
2017-10-07T03:20:09.561Z,21.33
2017-10-07T03:22:36.448Z,22.47
2017-10-07T03:25:03.096Z,18.17
2017-10-07T03:27:29.753Z,22.00
2017-10-07T03:29:56.470Z,20.80
2017-10-07T03:32:23.116Z,21.87
2017-10-07T03:34:49.759Z,23.70
2017-10-07T03:37:16.463Z,32.33
2017-10-07T03:39:43.108Z,23.03
2017-10-07T03:42:09.761Z,32.57
2017-10-07T03:44:36.439Z,20.37
2017-10-07T03:47:03.082Z,20.60
2017-10-07T03:49:29.750Z,24.00
2017-10-07T03:51:56.428Z,26.40
2017-10-07T03:54:23.093Z,22.47
2017-10-07T03:56:49.771Z,24.80
2017-10-07T03:59:16.425Z,23.17
2017-10-07T04:01:43.296Z,25.63
2017-10-07T04:04:09.947Z,27.50
2017-10-07T04:06:36.595Z,23.03
2017-10-07T04:09:03.317Z,26.13
2017-10-07T04:11:29.977Z,22.70
2017-10-07T04:13:56.617Z,24.47
2017-10-07T04:16:23.318Z,19.73
2017-10-07T04:18:50.305Z,21.53
2017-10-07T04:21:16.955Z,28.50
2017-10-07T04:23:43.621Z,31.40
2017-10-07T04:26:10.306Z,28.13
2017-10-07T04:28:37.379Z,26.20
2017-10-07T04:31:04.032Z,22.47
2017-10-07T04:33:30.677Z,28.13
2017-10-07T04:35:57.608Z,22.13
2017-10-07T04:38:24.354Z,35.73
2017-10-07T04:40:51.003Z,26.90
2017-10-07T04:43:17.680Z,22.63
2017-10-07T04:45:44.329Z,26.70
2017-10-07T04:48:11.011Z,24.03
2017-10-07T04:50:37.664Z,26.97
2017-10-07T04:53:04.505Z,25.47
2017-10-07T04:55:31.159Z,20.80
2017-10-07T04:57:57.860Z,31.97
2017-10-07T05:00:24.512Z,22.83
2017-10-07T05:02:51.168Z,21.27
2017-10-07T05:05:17.840Z,27.77
2017-10-07T05:07:44.504Z,24.57
2017-10-07T05:10:11.176Z,33.27
2017-10-07T05:12:37.834Z,17.07
2017-10-07T05:15:04.690Z,22.43
2017-10-07T05:17:31.338Z,25.10
2017-10-07T05:19:57.999Z,20.00
2017-10-07T05:22:24.905Z,24.10
2017-10-07T05:24:51.552Z,18.23
2017-10-07T05:27:18.195Z,20.73
2017-10-07T05:29:45.141Z,23.77
2017-10-07T05:32:11.779Z,20.53
2017-10-07T05:34:38.734Z,19.30
2017-10-07T05:37:05.403Z,19.40
2017-10-07T05:39:32.069Z,22.50
2017-10-07T05:41:58.903Z,28.97
2017-10-07T05:44:25.555Z,25.47
2017-10-07T05:46:52.211Z,22.93
2017-10-07T05:49:19.288Z,26.77
2017-10-07T05:51:45.944Z,20.93
2017-10-07T05:54:12.597Z,18.33
2017-10-07T05:56:39.264Z,18.17
2017-10-07T05:59:05.913Z,20.37
2017-10-07T06:01:32.902Z,21.17
2017-10-07T06:03:59.550Z,20.30
2017-10-07T06:06:26.204Z,19.80
2017-10-07T06:08:52.871Z,15.10
2017-10-07T06:11:19.515Z,24.63
2017-10-07T06:13:46.184Z,23.73
2017-10-07T06:16:12.847Z,21.60
2017-10-07T06:18:39.899Z,18.87
2017-10-07T06:21:06.571Z,25.27
2017-10-07T06:23:33.220Z,23.40
2017-10-07T06:25:59.889Z,24.80
2017-10-07T06:28:26.565Z,22.97
2017-10-07T06:30:53.263Z,22.27
2017-10-07T06:33:19.953Z,31.13
2017-10-07T06:35:46.600Z,26.33
2017-10-07T06:38:13.275Z,30.00
2017-10-07T06:40:39.928Z,22.57
2017-10-07T06:43:06.610Z,25.33
2017-10-07T06:45:34.280Z,28.20
2017-10-07T06:48:00.939Z,26.60
2017-10-07T06:50:27.600Z,28.73
2017-10-07T06:52:54.285Z,24.40
2017-10-07T06:55:20.957Z,23.90
2017-10-07T06:57:47.624Z,24.73
2017-10-07T07:00:14.429Z,17.33
2017-10-07T07:02:41.077Z,20.80
2017-10-07T07:05:07.737Z,25.13
2017-10-07T07:07:34.419Z,20.50
2017-10-07T07:10:01.077Z,21.60
2017-10-07T07:12:28.045Z,21.97
2017-10-07T07:14:54.694Z,25.27
2017-10-07T07:17:21.341Z,16.40
2017-10-07T07:19:48.016Z,19.37
2017-10-07T07:22:14.672Z,24.67
2017-10-07T07:24:41.349Z,14.50
2017-10-07T07:27:08.000Z,17.93
2017-10-07T07:29:34.676Z,18.80
2017-10-07T07:32:01.328Z,16.23
2017-10-07T07:34:27.985Z,14.20
2017-10-07T07:36:54.668Z,13.33
2017-10-07T07:39:21.320Z,16.00
2017-10-07T07:41:47.976Z,15.97
2017-10-07T07:44:14.662Z,14.97
2017-10-07T07:46:41.318Z,16.70
2017-10-07T07:49:08.006Z,18.60
2017-10-07T07:51:34.656Z,15.43
2017-10-07T07:54:01.297Z,11.93
2017-10-07T07:56:27.963Z,15.63
2017-10-07T07:58:54.608Z,15.37
2017-10-07T08:01:21.283Z,10.70
2017-10-07T08:03:47.940Z,23.13
2017-10-07T08:06:14.588Z,22.17
2017-10-07T08:08:41.415Z,12.40
2017-10-07T08:11:08.067Z,10.10
2017-10-07T08:13:34.720Z,16.80
2017-10-07T08:16:01.386Z,10.97
2017-10-07T08:18:28.032Z,12.70
2017-10-07T08:20:54.910Z,8.93
2017-10-07T08:23:21.950Z,8.07
2017-10-07T08:25:48.595Z,12.30
2017-10-07T08:28:15.238Z,17.03
2017-10-07T08:30:41.903Z,10.60
2017-10-07T08:33:08.713Z,12.93
2017-10-07T08:35:35.463Z,12.27
2017-10-07T08:38:02.105Z,7.47
2017-10-07T08:40:28.774Z,11.60
2017-10-07T08:42:55.445Z,11.70
2017-10-07T08:45:22.107Z,8.23
2017-10-07T08:47:49.181Z,12.83
2017-10-07T08:50:15.832Z,13.20
2017-10-07T08:52:42.484Z,7.53
2017-10-07T08:55:09.145Z,7.17
2017-10-07T08:57:35.792Z,6.77
2017-10-07T09:00:02.789Z,6.43
2017-10-07T09:02:29.449Z,7.40
2017-10-07T09:04:56.095Z,4.93
2017-10-07T09:07:22.761Z,6.80
2017-10-07T09:09:49.405Z,8.90
2017-10-07T09:12:16.068Z,7.17
2017-10-07T09:14:42.724Z,6.10
2017-10-07T09:17:09.690Z,8.10
2017-10-07T09:19:36.379Z,5.83
2017-10-07T09:22:03.375Z,5.17
2017-10-07T09:24:30.021Z,11.10
2017-10-07T09:26:56.675Z,5.00
2017-10-07T09:29:23.352Z,6.13
2017-10-07T09:31:49.996Z,8.03
2017-10-07T09:34:16.662Z,19.87
2017-10-07T09:36:43.328Z,6.07
2017-10-07T09:39:10.006Z,10.37
2017-10-07T09:41:36.655Z,8.80
2017-10-07T09:44:03.325Z,13.70
2017-10-07T09:46:29.975Z,9.40
2017-10-07T09:48:56.668Z,17.00
2017-10-07T09:51:23.463Z,8.60
2017-10-07T09:53:50.115Z,8.60
2017-10-07T09:56:16.755Z,9.53
2017-10-07T09:58:43.423Z,8.20
2017-10-07T10:01:10.058Z,8.10
2017-10-07T10:03:36.720Z,8.00
2017-10-07T10:06:03.370Z,10.13
2017-10-07T10:08:30.061Z,8.07
2017-10-07T10:10:56.705Z,5.60
2017-10-07T10:13:23.353Z,11.83
2017-10-07T10:15:50.030Z,12.90
2017-10-07T10:18:16.685Z,9.53
2017-10-07T10:20:43.350Z,9.00
2017-10-07T10:23:10.030Z,12.33
2017-10-07T10:25:36.700Z,8.40
2017-10-07T10:28:03.686Z,6.70
2017-10-07T10:30:30.341Z,5.00
2017-10-07T10:32:56.983Z,5.33
2017-10-07T10:35:23.652Z,3.90
2017-10-07T10:37:50.304Z,4.00
2017-10-07T10:40:16.983Z,8.70
2017-10-07T10:42:43.644Z,4.17
2017-10-07T10:45:10.316Z,20.17
2017-10-07T10:47:37.233Z,5.10
2017-10-07T10:50:03.884Z,5.10
2017-10-07T10:52:30.515Z,4.57
2017-10-07T10:54:57.188Z,5.27
2017-10-07T10:57:23.857Z,4.90
2017-10-07T10:59:50.519Z,6.10
2017-10-07T11:02:17.161Z,5.43
2017-10-07T11:04:43.837Z,3.23
2017-10-07T11:07:10.479Z,9.60
2017-10-07T11:09:37.306Z,4.93
2017-10-07T11:12:03.949Z,8.00
2017-10-07T11:14:30.589Z,4.13
2017-10-07T11:16:57.248Z,9.80
2017-10-07T11:19:23.919Z,11.67
2017-10-07T11:21:50.620Z,13.60
2017-10-07T11:24:17.273Z,4.63
2017-10-07T11:26:43.936Z,5.37
2017-10-07T11:29:10.589Z,11.70
2017-10-07T11:31:37.379Z,4.80
2017-10-07T11:34:04.020Z,8.80
2017-10-07T11:36:30.660Z,7.90
2017-10-07T11:38:57.373Z,11.40
2017-10-07T11:41:24.025Z,4.90
2017-10-07T11:43:50.667Z,14.73
2017-10-07T11:46:17.333Z,6.30
2017-10-07T11:48:44.003Z,9.33
2017-10-07T11:51:10.688Z,4.13
2017-10-07T11:53:37.660Z,3.57
2017-10-07T11:56:04.505Z,3.33
2017-10-07T11:58:31.183Z,3.30
2017-10-07T12:00:57.829Z,1.40
2017-10-07T12:03:24.494Z,3.93
2017-10-07T12:05:51.140Z,1.97
2017-10-07T12:08:17.806Z,2.53
2017-10-07T12:10:44.462Z,1.67
2017-10-07T12:13:11.139Z,8.93
2017-10-07T12:15:38.163Z,3.97
2017-10-07T12:18:04.815Z,2.40
2017-10-07T12:20:31.456Z,4.17
2017-10-07T12:22:58.129Z,2.17
2017-10-07T12:25:24.906Z,3.30
2017-10-07T12:27:51.547Z,2.57
2017-10-07T12:30:18.198Z,3.20
2017-10-07T12:32:44.875Z,3.80
2017-10-07T12:35:11.519Z,4.80
2017-10-07T12:37:38.199Z,2.27
2017-10-07T12:40:05.048Z,4.30
2017-10-07T12:42:31.703Z,1.53
2017-10-07T12:44:58.960Z,2.23
2017-10-07T12:47:25.912Z,6.23
2017-10-07T12:49:52.580Z,3.20
2017-10-07T12:52:19.228Z,4.00
2017-10-07T12:54:45.896Z,3.60
2017-10-07T12:57:12.551Z,3.23
2017-10-07T12:59:39.217Z,6.10
2017-10-07T13:02:05.869Z,4.17
2017-10-07T13:04:32.521Z,12.43
2017-10-07T13:07:00.131Z,2.60
2017-10-07T13:09:26.769Z,2.77
2017-10-07T13:11:53.435Z,4.03
2017-10-07T13:14:21.356Z,3.73
2017-10-07T13:16:49.176Z,2.80
2017-10-07T13:19:16.108Z,1.30
2017-10-07T13:21:42.773Z,2.60
2017-10-07T13:24:09.411Z,4.77
2017-10-07T13:26:36.370Z,3.40
2017-10-07T13:29:03.017Z,2.20
2017-10-07T13:31:29.656Z,2.27
2017-10-07T13:33:56.329Z,2.60
2017-10-07T13:36:22.988Z,4.37
2017-10-07T13:38:49.630Z,3.00
2017-10-07T13:41:16.297Z,2.37
2017-10-07T13:43:42.933Z,3.47
2017-10-07T13:46:09.591Z,6.60
2017-10-07T13:48:36.262Z,7.70
2017-10-07T13:51:02.904Z,4.00
2017-10-07T13:53:29.807Z,4.47
2017-10-07T13:55:56.452Z,7.17
2017-10-07T13:58:23.149Z,7.70
2017-10-07T14:00:49.817Z,2.20
2017-10-07T14:03:16.476Z,3.37
2017-10-07T14:05:43.124Z,4.70
2017-10-07T14:08:09.797Z,2.33
2017-10-07T14:10:36.464Z,17.73
2017-10-07T14:13:03.112Z,4.73
2017-10-07T14:15:29.800Z,12.90
2017-10-07T14:17:56.494Z,2.60
2017-10-07T14:20:23.144Z,4.20
2017-10-07T14:22:49.783Z,4.13
2017-10-07T14:25:16.447Z,1.97
2017-10-07T14:27:43.092Z,2.30
2017-10-07T14:30:09.776Z,8.23
2017-10-07T14:32:36.444Z,3.03
2017-10-07T14:35:03.085Z,3.03
2017-10-07T14:37:29.751Z,3.07
2017-10-07T14:39:56.698Z,4.67
2017-10-07T14:42:23.367Z,3.37
2017-10-07T14:44:50.009Z,9.43
2017-10-07T14:47:16.655Z,1.90
2017-10-07T14:49:44.264Z,3.10
2017-10-07T14:52:10.909Z,5.10
2017-10-07T14:54:37.569Z,3.80
2017-10-07T14:57:04.210Z,4.37
2017-10-07T14:59:30.873Z,3.10
2017-10-07T15:01:57.557Z,1.33
2017-10-07T15:04:24.240Z,2.43
2017-10-07T15:06:51.080Z,2.40
2017-10-07T15:09:17.720Z,6.00
2017-10-07T15:11:44.564Z,7.33
2017-10-07T15:14:11.228Z,2.10
2017-10-07T15:16:37.887Z,2.60
2017-10-07T15:19:04.570Z,2.80
2017-10-07T15:21:31.226Z,2.63
2017-10-07T15:23:57.869Z,2.20
2017-10-07T15:26:24.700Z,4.93
2017-10-07T15:28:51.340Z,3.30
2017-10-07T15:31:17.983Z,4.50
2017-10-07T15:33:44.779Z,3.93
2017-10-07T15:36:11.419Z,2.50
2017-10-07T15:38:38.061Z,6.90
2017-10-07T15:41:04.832Z,2.30
2017-10-07T15:43:31.475Z,1.70
2017-10-07T15:45:58.116Z,2.17
2017-10-07T15:48:24.789Z,1.73
2017-10-07T15:50:51.428Z,5.33
2017-10-07T15:53:18.087Z,6.63
2017-10-07T15:55:44.731Z,2.50
2017-10-07T15:58:11.423Z,1.60
2017-10-07T16:00:38.299Z,4.53
2017-10-07T16:03:04.941Z,4.47
2017-10-07T16:05:31.628Z,2.60
2017-10-07T16:07:58.277Z,1.80
2017-10-07T16:10:24.940Z,3.77
2017-10-07T16:12:51.617Z,13.43
2017-10-07T16:15:18.291Z,11.43
2017-10-07T16:17:44.955Z,9.57
2017-10-07T16:20:11.599Z,2.10
2017-10-07T16:22:38.264Z,9.97
2017-10-07T16:25:04.912Z,7.43
2017-10-07T16:27:31.579Z,6.57
2017-10-07T16:29:58.396Z,4.47
2017-10-07T16:32:25.044Z,3.08
2017-10-07T16:34:51.984Z,2.43
2017-10-07T16:37:18.633Z,28.63
2017-10-07T16:39:45.301Z,3.27
2017-10-07T16:42:11.936Z,4.77
2017-10-07T16:44:38.608Z,3.87
2017-10-07T16:47:05.252Z,4.37
2017-10-07T16:49:31.904Z,2.93
2017-10-07T16:51:58.571Z,5.43
2017-10-07T16:54:25.228Z,20.57
2017-10-07T16:56:52.000Z,3.27
2017-10-07T16:59:18.645Z,4.90
2017-10-07T17:01:45.281Z,2.87
2017-10-07T17:04:11.942Z,5.03
2017-10-07T17:06:38.599Z,4.73
2017-10-07T17:09:05.237Z,3.50
2017-10-07T17:11:31.909Z,3.53
2017-10-07T17:13:58.596Z,2.20
2017-10-07T17:16:25.232Z,7.73
2017-10-07T17:18:51.925Z,3.20
2017-10-07T17:21:18.567Z,7.13
2017-10-07T17:23:45.240Z,15.60
2017-10-07T17:26:11.933Z,4.87
2017-10-07T17:28:38.570Z,3.23
2017-10-07T17:31:06.054Z,3.63
2017-10-07T17:33:34.115Z,4.50
2017-10-07T17:36:01.586Z,4.83
2017-10-07T17:38:28.536Z,6.80
2017-10-07T17:40:55.179Z,6.00
2017-10-07T17:43:22.915Z,9.20
2017-10-07T17:45:49.570Z,33.97
2017-10-07T17:48:16.239Z,8.60
2017-10-07T17:50:42.896Z,13.80
2017-10-07T17:53:09.574Z,15.37
2017-10-07T17:55:36.245Z,32.07
2017-10-07T17:58:02.892Z,8.10
2017-10-07T18:00:30.754Z,15.10
2017-10-07T18:02:57.416Z,8.53
2017-10-07T18:05:24.069Z,9.17
2017-10-07T18:07:50.780Z,7.57
2017-10-07T18:10:17.424Z,13.83
2017-10-07T18:12:44.271Z,6.60
2017-10-07T18:15:10.913Z,7.70
2017-10-07T18:17:37.559Z,14.33
2017-10-07T18:20:04.228Z,9.13
2017-10-07T18:22:30.877Z,16.70
2017-10-07T18:24:57.574Z,5.13
2017-10-07T18:27:24.221Z,6.47
2017-10-07T18:29:50.868Z,6.70
2017-10-07T18:32:17.537Z,7.53
2017-10-07T18:34:44.191Z,20.77
2017-10-07T18:37:11.186Z,8.07
2017-10-07T18:39:37.828Z,5.13
2017-10-07T18:42:04.472Z,5.30
2017-10-07T18:44:31.137Z,9.37
2017-10-07T18:46:57.781Z,7.50
2017-10-07T18:49:24.597Z,6.33
2017-10-07T18:51:51.243Z,15.33
2017-10-07T18:54:17.876Z,8.57
2017-10-07T18:56:44.836Z,5.27
2017-10-07T18:59:11.501Z,7.77
2017-10-07T19:01:38.146Z,7.33
2017-10-07T19:04:04.791Z,12.90
2017-10-07T19:06:32.281Z,7.80
2017-10-07T19:08:59.255Z,7.40
2017-10-07T19:11:26.223Z,6.33
2017-10-07T19:13:52.863Z,4.93
2017-10-07T19:16:19.529Z,9.87
2017-10-07T19:18:46.330Z,5.87
2017-10-07T19:21:12.971Z,10.10
2017-10-07T19:23:39.656Z,7.60
2017-10-07T19:26:06.337Z,7.53
2017-10-07T19:28:32.985Z,13.60
2017-10-07T19:30:59.645Z,5.90
2017-10-07T19:33:26.317Z,5.67
2017-10-07T19:35:52.964Z,13.87
2017-10-07T19:38:19.660Z,6.10
2017-10-07T19:40:46.406Z,7.40
2017-10-07T19:43:13.253Z,5.70
2017-10-07T19:45:39.893Z,4.97
2017-10-07T19:48:06.586Z,11.77
2017-10-07T19:50:33.238Z,7.50
2017-10-07T19:52:59.892Z,19.10
2017-10-07T19:55:26.570Z,10.50
2017-10-07T19:57:53.213Z,9.63
2017-10-07T20:00:19.855Z,5.60
2017-10-07T20:02:46.785Z,6.40
2017-10-07T20:05:13.683Z,16.03
2017-10-07T20:07:40.327Z,10.10
2017-10-07T20:10:06.990Z,6.57
2017-10-07T20:12:33.894Z,7.63
2017-10-07T20:15:00.568Z,6.30
2017-10-07T20:17:27.429Z,12.63
2017-10-07T20:19:54.533Z,6.63
2017-10-07T20:22:21.296Z,12.60
2017-10-07T20:24:47.956Z,4.60
2017-10-07T20:27:14.638Z,5.03
2017-10-07T20:29:41.301Z,4.50
2017-10-07T20:32:07.970Z,7.27
2017-10-07T20:34:34.620Z,4.37
2017-10-07T20:37:01.292Z,3.63
2017-10-07T20:39:27.974Z,7.20
2017-10-07T20:41:55.083Z,5.57
2017-10-07T20:44:21.741Z,3.37
2017-10-07T20:46:48.406Z,3.90
2017-10-07T20:49:15.066Z,5.97
2017-10-07T20:51:41.724Z,5.10
2017-10-07T20:54:08.392Z,4.40
2017-10-07T20:56:35.048Z,4.70
2017-10-07T20:59:01.692Z,7.80
2017-10-07T21:01:28.356Z,3.47
2017-10-07T21:03:54.994Z,4.07
2017-10-07T21:06:21.672Z,5.33
2017-10-07T21:08:48.315Z,11.20
2017-10-07T21:11:14.958Z,3.73
2017-10-07T21:13:41.619Z,3.87
2017-10-07T21:16:08.292Z,4.10
2017-10-07T21:18:34.950Z,6.43
2017-10-07T21:21:01.616Z,6.20
2017-10-07T21:23:28.312Z,5.80
2017-10-07T21:25:54.951Z,3.70
2017-10-07T21:28:21.628Z,3.20
2017-10-07T21:30:48.301Z,4.13
2017-10-07T21:33:14.945Z,5.20
2017-10-07T21:35:41.623Z,3.80
2017-10-07T21:38:08.270Z,5.63
2017-10-07T21:40:35.457Z,4.17
2017-10-07T21:43:02.100Z,4.83
2017-10-07T21:45:28.738Z,3.87
2017-10-07T21:47:55.410Z,6.10
2017-10-07T21:50:22.048Z,4.23
2017-10-07T21:52:48.731Z,4.33
2017-10-07T21:55:15.376Z,3.60
2017-10-07T21:57:42.092Z,4.13
2017-10-07T22:00:08.759Z,3.73
2017-10-07T22:02:35.405Z,4.03
2017-10-07T22:05:02.066Z,4.63
2017-10-07T22:07:28.735Z,5.83
2017-10-07T22:09:55.376Z,4.13
2017-10-07T22:12:22.058Z,3.63
2017-10-07T22:14:48.720Z,6.50
2017-10-07T22:17:15.395Z,4.17
2017-10-07T22:19:42.045Z,5.43
2017-10-07T22:22:08.731Z,4.00
2017-10-07T22:24:35.372Z,4.10
2017-10-07T22:27:02.351Z,4.20
2017-10-07T22:29:28.992Z,3.93
2017-10-07T22:31:55.655Z,4.07
2017-10-07T22:34:22.305Z,7.90
2017-10-07T22:36:48.990Z,4.33
2017-10-07T22:39:15.636Z,5.13
2017-10-07T22:41:42.287Z,3.67
2017-10-07T22:44:09.167Z,2.77
2017-10-07T22:46:35.816Z,8.00
2017-10-07T22:49:02.464Z,10.03
2017-10-07T22:51:29.129Z,4.20
2017-10-07T22:53:55.808Z,3.43
2017-10-07T22:56:22.455Z,3.63
2017-10-07T22:58:49.168Z,3.40
2017-10-07T23:01:15.824Z,3.70
2017-10-07T23:03:42.463Z,5.20
2017-10-07T23:06:09.135Z,7.63
2017-10-07T23:08:35.780Z,4.33
2017-10-07T23:11:02.420Z,7.43
2017-10-07T23:13:29.097Z,3.70
2017-10-07T23:15:55.744Z,3.77
2017-10-07T23:18:22.408Z,4.93
2017-10-07T23:20:49.055Z,6.30
2017-10-07T23:23:15.823Z,4.43
2017-10-07T23:25:42.471Z,3.67
2017-10-07T23:28:09.107Z,4.53
2017-10-07T23:30:35.772Z,4.80
2017-10-07T23:33:02.407Z,3.50
2017-10-07T23:35:29.067Z,5.60
2017-10-07T23:37:55.718Z,3.80
2017-10-07T23:40:22.609Z,8.00
2017-10-07T23:42:49.257Z,3.80
2017-10-07T23:45:15.899Z,3.97
2017-10-07T23:47:42.773Z,4.50
2017-10-07T23:50:09.414Z,4.03
2017-10-07T23:52:36.052Z,4.57
2017-10-07T23:55:02.727Z,7.27
2017-10-07T23:57:29.610Z,3.40
2017-10-07T23:59:56.239Z,3.57
